sensor_id;sensor_type;location;lat;lon;timestamp;temperature;humidity
18365;DHT22;9309;52.126;11.616;2023-02-08T00:00:22;-5.10;94.90
18365;DHT22;9309;52.126;11.616;2023-02-08T00:02:49;-5.10;95.20
18365;DHT22;9309;52.126;11.616;2023-02-08T00:05:16;-4.80;94.60
18365;DHT22;9309;52.126;11.616;2023-02-08T00:07:43;-4.60;93.90
18365;DHT22;9309;52.126;11.616;2023-02-08T00:10:10;-4.50;92.70
18365;DHT22;9309;52.126;11.616;2023-02-08T00:12:37;-4.30;91.80
18365;DHT22;9309;52.126;11.616;2023-02-08T00:15:05;-4.50;91.50
18365;DHT22;9309;52.126;11.616;2023-02-08T00:17:32;-4.50;91.10
18365;DHT22;9309;52.126;11.616;2023-02-08T00:19:59;-4.40;91.20
18365;DHT22;9309;52.126;11.616;2023-02-08T00:22:25;-4.30;90.80
18365;DHT22;9309;52.126;11.616;2023-02-08T00:24:52;-4.30;90.40
18365;DHT22;9309;52.126;11.616;2023-02-08T00:27:19;-4.30;89.90
18365;DHT22;9309;52.126;11.616;2023-02-08T00:29:45;-4.50;90.60
18365;DHT22;9309;52.126;11.616;2023-02-08T00:32:13;-4.30;90.80
18365;DHT22;9309;52.126;11.616;2023-02-08T00:34:40;-4.20;89.60
18365;DHT22;9309;52.126;11.616;2023-02-08T00:37:08;-4.20;89.00
18365;DHT22;9309;52.126;11.616;2023-02-08T00:39:35;-4.40;89.30
18365;DHT22;9309;52.126;11.616;2023-02-08T00:42:02;-4.50;90.40
18365;DHT22;9309;52.126;11.616;2023-02-08T00:44:28;-4.30;90.10
18365;DHT22;9309;52.126;11.616;2023-02-08T00:46:55;-4.40;89.70
18365;DHT22;9309;52.126;11.616;2023-02-08T00:49:23;-4.40;90.30
18365;DHT22;9309;52.126;11.616;2023-02-08T00:51:49;-4.30;90.30
18365;DHT22;9309;52.126;11.616;2023-02-08T00:54:17;-4.50;89.40
18365;DHT22;9309;52.126;11.616;2023-02-08T00:56:45;-4.80;91.40
18365;DHT22;9309;52.126;11.616;2023-02-08T00:59:12;-4.80;92.50
18365;DHT22;9309;52.126;11.616;2023-02-08T01:01:39;-4.90;92.60
18365;DHT22;9309;52.126;11.616;2023-02-08T01:04:07;-4.70;92.80
18365;DHT22;9309;52.126;11.616;2023-02-08T01:06:35;-4.80;92.40
18365;DHT22;9309;52.126;11.616;2023-02-08T01:09:01;-4.90;93.20
18365;DHT22;9309;52.126;11.616;2023-02-08T01:11:28;-4.60;92.50
18365;DHT22;9309;52.126;11.616;2023-02-08T01:13:56;-4.50;90.80
18365;DHT22;9309;52.126;11.616;2023-02-08T01:16:25;-4.80;91.70
18365;DHT22;9309;52.126;11.616;2023-02-08T01:18:53;-4.90;92.70
18365;DHT22;9309;52.126;11.616;2023-02-08T01:21:22;-4.90;93.10
18365;DHT22;9309;52.126;11.616;2023-02-08T01:23:50;-5.00;93.00
18365;DHT22;9309;52.126;11.616;2023-02-08T01:26:18;-5.10;93.40
18365;DHT22;9309;52.126;11.616;2023-02-08T01:28:46;-5.00;93.30
18365;DHT22;9309;52.126;11.616;2023-02-08T01:31:16;-4.80;92.20
18365;DHT22;9309;52.126;11.616;2023-02-08T01:33:43;-4.80;92.00
18365;DHT22;9309;52.126;11.616;2023-02-08T01:36:10;-4.90;93.10
18365;DHT22;9309;52.126;11.616;2023-02-08T01:38:37;-4.80;93.40
18365;DHT22;9309;52.126;11.616;2023-02-08T01:41:08;-4.90;92.90
18365;DHT22;9309;52.126;11.616;2023-02-08T01:46:40;-5.20;94.10
18365;DHT22;9309;52.126;11.616;2023-02-08T01:49:10;-4.90;94.20
18365;DHT22;9309;52.126;11.616;2023-02-08T01:51:42;-4.60;91.90
18365;DHT22;9309;52.126;11.616;2023-02-08T01:54:11;-4.70;90.60
18365;DHT22;9309;52.126;11.616;2023-02-08T01:56:41;-5.00;91.00
18365;DHT22;9309;52.126;11.616;2023-02-08T01:59:15;-5.30;92.90
18365;DHT22;9309;52.126;11.616;2023-02-08T02:01:44;-5.30;93.70
18365;DHT22;9309;52.126;11.616;2023-02-08T02:04:12;-5.40;94.30
18365;DHT22;9309;52.126;11.616;2023-02-08T02:06:44;-5.20;94.40
18365;DHT22;9309;52.126;11.616;2023-02-08T02:09:18;-5.10;94.10
18365;DHT22;9309;52.126;11.616;2023-02-08T02:11:47;-4.80;93.20
18365;DHT22;9309;52.126;11.616;2023-02-08T02:14:16;-4.70;91.50
18365;DHT22;9309;52.126;11.616;2023-02-08T02:16:45;-4.60;90.80
18365;DHT22;9309;52.126;11.616;2023-02-08T02:19:15;-4.80;91.20
18365;DHT22;9309;52.126;11.616;2023-02-08T02:21:56;-5.10;91.90
18365;DHT22;9309;52.126;11.616;2023-02-08T02:24:51;-5.30;93.10
18365;DHT22;9309;52.126;11.616;2023-02-08T02:27:32;-5.40;93.60
18365;DHT22;9309;52.126;11.616;2023-02-08T02:30:44;-5.60;94.30
18365;DHT22;9309;52.126;11.616;2023-02-08T02:33:38;-5.50;94.70
18365;DHT22;9309;52.126;11.616;2023-02-08T02:36:14;-5.40;94.50
18365;DHT22;9309;52.126;11.616;2023-02-08T02:38:52;-5.20;94.00
18365;DHT22;9309;52.126;11.616;2023-02-08T02:41:27;-5.40;93.90
18365;DHT22;9309;52.126;11.616;2023-02-08T02:44:22;-5.40;94.80
18365;DHT22;9309;52.126;11.616;2023-02-08T02:46:57;-5.50;95.10
18365;DHT22;9309;52.126;11.616;2023-02-08T02:49:31;-5.50;95.40
18365;DHT22;9309;52.126;11.616;2023-02-08T02:52:05;-5.50;95.90
18365;DHT22;9309;52.126;11.616;2023-02-08T02:54:39;-5.50;96.30
18365;DHT22;9309;52.126;11.616;2023-02-08T02:57:09;-5.30;96.00
18365;DHT22;9309;52.126;11.616;2023-02-08T02:59:38;-5.40;95.90
18365;DHT22;9309;52.126;11.616;2023-02-08T03:02:05;-5.50;96.00
18365;DHT22;9309;52.126;11.616;2023-02-08T03:04:50;-5.50;96.10
18365;DHT22;9309;52.126;11.616;2023-02-08T03:07:36;-5.50;96.40
18365;DHT22;9309;52.126;11.616;2023-02-08T03:10:15;-5.20;96.40
18365;DHT22;9309;52.126;11.616;2023-02-08T03:12:54;-5.30;95.80
18365;DHT22;9309;52.126;11.616;2023-02-08T03:15:29;-5.40;95.60
18365;DHT22;9309;52.126;11.616;2023-02-08T03:18:05;-5.40;96.00
18365;DHT22;9309;52.126;11.616;2023-02-08T03:20:38;-5.50;96.10
18365;DHT22;9309;52.126;11.616;2023-02-08T03:23:10;-5.60;96.30
18365;DHT22;9309;52.126;11.616;2023-02-08T03:25:48;-5.60;96.80
18365;DHT22;9309;52.126;11.616;2023-02-08T03:28:21;-5.60;97.10
18365;DHT22;9309;52.126;11.616;2023-02-08T03:30:53;-5.50;97.40
18365;DHT22;9309;52.126;11.616;2023-02-08T03:33:25;-5.50;97.00
18365;DHT22;9309;52.126;11.616;2023-02-08T03:35:59;-5.60;97.00
18365;DHT22;9309;52.126;11.616;2023-02-08T03:38:30;-5.40;97.30
18365;DHT22;9309;52.126;11.616;2023-02-08T03:40:59;-5.30;97.00
18365;DHT22;9309;52.126;11.616;2023-02-08T03:43:29;-5.30;96.60
18365;DHT22;9309;52.126;11.616;2023-02-08T03:46:02;-5.20;96.80
18365;DHT22;9309;52.126;11.616;2023-02-08T03:48:33;-5.10;96.10
18365;DHT22;9309;52.126;11.616;2023-02-08T03:51:04;-5.30;95.70
18365;DHT22;9309;52.126;11.616;2023-02-08T03:53:32;-5.40;96.20
18365;DHT22;9309;52.126;11.616;2023-02-08T03:56:05;-5.50;96.50
18365;DHT22;9309;52.126;11.616;2023-02-08T03:58:38;-5.50;96.90
18365;DHT22;9309;52.126;11.616;2023-02-08T04:01:10;-5.50;97.30
18365;DHT22;9309;52.126;11.616;2023-02-08T04:03:39;-5.40;97.80
18365;DHT22;9309;52.126;11.616;2023-02-08T04:06:08;-5.20;97.60
18365;DHT22;9309;52.126;11.616;2023-02-08T04:08:35;-5.30;96.80
18365;DHT22;9309;52.126;11.616;2023-02-08T04:11:01;-5.30;97.00
18365;DHT22;9309;52.126;11.616;2023-02-08T04:13:28;-5.20;96.80
18365;DHT22;9309;52.126;11.616;2023-02-08T04:15:55;-5.20;96.80
18365;DHT22;9309;52.126;11.616;2023-02-08T04:18:21;-5.10;96.10
18365;DHT22;9309;52.126;11.616;2023-02-08T04:20:48;-5.30;95.30
18365;DHT22;9309;52.126;11.616;2023-02-08T04:23:16;-5.40;95.70
18365;DHT22;9309;52.126;11.616;2023-02-08T04:25:43;-5.40;95.90
18365;DHT22;9309;52.126;11.616;2023-02-08T04:28:09;-5.50;95.80
18365;DHT22;9309;52.126;11.616;2023-02-08T04:30:36;-5.50;96.30
18365;DHT22;9309;52.126;11.616;2023-02-08T04:33:03;-5.40;96.60
18365;DHT22;9309;52.126;11.616;2023-02-08T04:35:29;-5.40;96.50
18365;DHT22;9309;52.126;11.616;2023-02-08T04:37:56;-5.30;96.40
18365;DHT22;9309;52.126;11.616;2023-02-08T04:40:24;-5.30;96.30
18365;DHT22;9309;52.126;11.616;2023-02-08T04:42:50;-5.20;96.00
18365;DHT22;9309;52.126;11.616;2023-02-08T04:45:17;-4.90;95.30
18365;DHT22;9309;52.126;11.616;2023-02-08T04:47:44;-5.10;94.40
18365;DHT22;9309;52.126;11.616;2023-02-08T04:50:10;-5.10;94.10
18365;DHT22;9309;52.126;11.616;2023-02-08T04:52:37;-4.90;94.30
18365;DHT22;9309;52.126;11.616;2023-02-08T04:55:04;-4.90;93.30
18365;DHT22;9309;52.126;11.616;2023-02-08T04:57:32;-5.00;93.30
18365;DHT22;9309;52.126;11.616;2023-02-08T04:59:59;-5.00;93.60
18365;DHT22;9309;52.126;11.616;2023-02-08T05:02:26;-5.00;93.80
18365;DHT22;9309;52.126;11.616;2023-02-08T05:04:53;-5.00;93.30
18365;DHT22;9309;52.126;11.616;2023-02-08T05:07:19;-5.30;93.60
18365;DHT22;9309;52.126;11.616;2023-02-08T05:09:46;-5.40;94.40
18365;DHT22;9309;52.126;11.616;2023-02-08T05:12:13;-5.30;94.60
18365;DHT22;9309;52.126;11.616;2023-02-08T05:14:41;-5.30;94.50
18365;DHT22;9309;52.126;11.616;2023-02-08T05:17:07;-5.30;94.60
18365;DHT22;9309;52.126;11.616;2023-02-08T05:19:34;-5.40;94.70
18365;DHT22;9309;52.126;11.616;2023-02-08T05:22:01;-5.40;95.00
18365;DHT22;9309;52.126;11.616;2023-02-08T05:24:27;-5.40;94.90
18365;DHT22;9309;52.126;11.616;2023-02-08T05:26:54;-5.30;94.70
18365;DHT22;9309;52.126;11.616;2023-02-08T05:29:21;-5.30;95.00
18365;DHT22;9309;52.126;11.616;2023-02-08T05:31:49;-5.30;94.70
18365;DHT22;9309;52.126;11.616;2023-02-08T05:34:15;-5.40;94.60
18365;DHT22;9309;52.126;11.616;2023-02-08T05:36:42;-5.40;94.40
18365;DHT22;9309;52.126;11.616;2023-02-08T05:39:08;-5.40;94.60
18365;DHT22;9309;52.126;11.616;2023-02-08T05:41:35;-5.30;94.30
18365;DHT22;9309;52.126;11.616;2023-02-08T05:44:02;-5.10;93.80
18365;DHT22;9309;52.126;11.616;2023-02-08T05:46:29;-5.10;92.90
18365;DHT22;9309;52.126;11.616;2023-02-08T05:48:56;-5.30;92.90
18365;DHT22;9309;52.126;11.616;2023-02-08T05:51:23;-5.50;93.60
18365;DHT22;9309;52.126;11.616;2023-02-08T05:53:50;-5.30;93.80
18365;DHT22;9309;52.126;11.616;2023-02-08T05:56:16;-5.30;92.90
18365;DHT22;9309;52.126;11.616;2023-02-08T05:58:43;-5.30;93.20
18365;DHT22;9309;52.126;11.616;2023-02-08T06:01:10;-5.40;93.60
18365;DHT22;9309;52.126;11.616;2023-02-08T06:03:38;-5.50;93.90
18365;DHT22;9309;52.126;11.616;2023-02-08T06:06:07;-5.40;94.10
18365;DHT22;9309;52.126;11.616;2023-02-08T06:08:35;-5.40;94.00
18365;DHT22;9309;52.126;11.616;2023-02-08T06:11:02;-5.40;94.00
18365;DHT22;9309;52.126;11.616;2023-02-08T06:13:29;-5.50;93.70
18365;DHT22;9309;52.126;11.616;2023-02-08T06:15:55;-5.60;93.70
18365;DHT22;9309;52.126;11.616;2023-02-08T06:18:22;-5.60;94.20
18365;DHT22;9309;52.126;11.616;2023-02-08T06:20:51;-5.60;94.00
18365;DHT22;9309;52.126;11.616;2023-02-08T06:23:19;-5.70;93.90
18365;DHT22;9309;52.126;11.616;2023-02-08T06:25:46;-5.80;94.10
18365;DHT22;9309;52.126;11.616;2023-02-08T06:28:12;-5.80;94.60
18365;DHT22;9309;52.126;11.616;2023-02-08T06:30:39;-5.90;95.10
18365;DHT22;9309;52.126;11.616;2023-02-08T06:33:06;-5.90;95.60
18365;DHT22;9309;52.126;11.616;2023-02-08T06:35:32;-5.90;95.70
18365;DHT22;9309;52.126;11.616;2023-02-08T06:37:59;-5.90;95.90
18365;DHT22;9309;52.126;11.616;2023-02-08T06:40:28;-5.90;96.20
18365;DHT22;9309;52.126;11.616;2023-02-08T06:42:54;-5.80;96.50
18365;DHT22;9309;52.126;11.616;2023-02-08T06:45:21;-5.70;96.60
18365;DHT22;9309;52.126;11.616;2023-02-08T06:47:48;-5.70;96.20
18365;DHT22;9309;52.126;11.616;2023-02-08T06:50:14;-5.70;96.10
18365;DHT22;9309;52.126;11.616;2023-02-08T06:52:41;-5.60;95.90
18365;DHT22;9309;52.126;11.616;2023-02-08T06:55:07;-5.60;95.60
18365;DHT22;9309;52.126;11.616;2023-02-08T06:57:35;-5.50;95.70
18365;DHT22;9309;52.126;11.616;2023-02-08T07:00:02;-5.40;95.40
18365;DHT22;9309;52.126;11.616;2023-02-08T07:02:29;-5.40;94.70
18365;DHT22;9309;52.126;11.616;2023-02-08T07:04:56;-5.30;94.40
18365;DHT22;9309;52.126;11.616;2023-02-08T07:07:23;-5.40;94.80
18365;DHT22;9309;52.126;11.616;2023-02-08T07:09:49;-5.40;94.70
18365;DHT22;9309;52.126;11.616;2023-02-08T07:12:16;-5.60;94.60
18365;DHT22;9309;52.126;11.616;2023-02-08T07:14:44;-5.60;95.10
18365;DHT22;9309;52.126;11.616;2023-02-08T07:17:11;-5.50;95.50
18365;DHT22;9309;52.126;11.616;2023-02-08T07:19:38;-5.40;95.30
18365;DHT22;9309;52.126;11.616;2023-02-08T07:22:06;-5.40;95.30
18365;DHT22;9309;52.126;11.616;2023-02-08T07:24:34;-5.50;95.40
18365;DHT22;9309;52.126;11.616;2023-02-08T07:27:01;-5.40;95.30
18365;DHT22;9309;52.126;11.616;2023-02-08T07:29:28;-5.30;95.20
18365;DHT22;9309;52.126;11.616;2023-02-08T07:31:56;-5.20;94.90
18365;DHT22;9309;52.126;11.616;2023-02-08T07:34:23;-5.20;94.50
18365;DHT22;9309;52.126;11.616;2023-02-08T07:36:50;-4.90;94.10
18365;DHT22;9309;52.126;11.616;2023-02-08T07:39:16;-4.90;92.50
18365;DHT22;9309;52.126;11.616;2023-02-08T07:41:43;-5.00;92.50
18365;DHT22;9309;52.126;11.616;2023-02-08T07:44:10;-5.00;92.60
18365;DHT22;9309;52.126;11.616;2023-02-08T07:46:36;-5.20;93.40
18365;DHT22;9309;52.126;11.616;2023-02-08T07:49:04;-5.10;93.80
18365;DHT22;9309;52.126;11.616;2023-02-08T07:51:31;-5.20;93.80
18365;DHT22;9309;52.126;11.616;2023-02-08T07:53:58;-5.40;94.30
18365;DHT22;9309;52.126;11.616;2023-02-08T07:56:25;-5.30;95.20
18365;DHT22;9309;52.126;11.616;2023-02-08T07:58:51;-5.00;94.90
18365;DHT22;9309;52.126;11.616;2023-02-08T08:01:18;-5.10;93.80
18365;DHT22;9309;52.126;11.616;2023-02-08T08:03:44;-5.20;94.20
18365;DHT22;9309;52.126;11.616;2023-02-08T08:06:12;-5.10;94.80
18365;DHT22;9309;52.126;11.616;2023-02-08T08:08:39;-5.00;94.80
18365;DHT22;9309;52.126;11.616;2023-02-08T08:11:06;-4.50;94.70
18365;DHT22;9309;52.126;11.616;2023-02-08T08:13:33;-4.30;92.10
18365;DHT22;9309;52.126;11.616;2023-02-08T08:16:00;-4.00;89.40
18365;DHT22;9309;52.126;11.616;2023-02-08T08:18:26;-3.90;89.10
18365;DHT22;9309;52.126;11.616;2023-02-08T08:20:53;-3.70;88.10
18365;DHT22;9309;52.126;11.616;2023-02-08T08:23:21;-3.70;87.40
18365;DHT22;9309;52.126;11.616;2023-02-08T08:25:48;-3.90;88.00
18365;DHT22;9309;52.126;11.616;2023-02-08T08:28:15;-3.80;87.50
18365;DHT22;9309;52.126;11.616;2023-02-08T08:30:42;-3.60;87.30
18365;DHT22;9309;52.126;11.616;2023-02-08T08:33:09;-3.60;87.20
18365;DHT22;9309;52.126;11.616;2023-02-08T08:35:38;-4.30;88.50
18365;DHT22;9309;52.126;11.616;2023-02-08T08:38:05;-4.30;90.70
18365;DHT22;9309;52.126;11.616;2023-02-08T08:40:33;-4.20;90.60
18365;DHT22;9309;52.126;11.616;2023-02-08T08:43:00;-4.30;90.50
18365;DHT22;9309;52.126;11.616;2023-02-08T08:45:26;-4.40;90.90
18365;DHT22;9309;52.126;11.616;2023-02-08T08:47:53;-4.50;91.40
18365;DHT22;9309;52.126;11.616;2023-02-08T08:50:19;-4.40;91.60
18365;DHT22;9309;52.126;11.616;2023-02-08T08:52:46;-4.20;91.40
18365;DHT22;9309;52.126;11.616;2023-02-08T08:55:13;-3.90;90.90
18365;DHT22;9309;52.126;11.616;2023-02-08T08:57:41;-3.60;88.90
18365;DHT22;9309;52.126;11.616;2023-02-08T09:00:08;-3.40;88.60
18365;DHT22;9309;52.126;11.616;2023-02-08T09:02:35;-3.30;87.10
18365;DHT22;9309;52.126;11.616;2023-02-08T09:05:02;-3.30;88.00
18365;DHT22;9309;52.126;11.616;2023-02-08T09:07:30;-3.20;86.20
18365;DHT22;9309;52.126;11.616;2023-02-08T09:09:58;-2.90;85.80
18365;DHT22;9309;52.126;11.616;2023-02-08T09:12:24;-3.20;85.40
18365;DHT22;9309;52.126;11.616;2023-02-08T09:14:52;-3.00;85.10
18365;DHT22;9309;52.126;11.616;2023-02-08T09:17:19;-2.70;85.30
18365;DHT22;9309;52.126;11.616;2023-02-08T09:19:46;-3.00;85.60
18365;DHT22;9309;52.126;11.616;2023-02-08T09:22:13;-3.20;86.80
18365;DHT22;9309;52.126;11.616;2023-02-08T09:24:39;-3.20;87.60
18365;DHT22;9309;52.126;11.616;2023-02-08T09:27:06;-3.00;87.20
18365;DHT22;9309;52.126;11.616;2023-02-08T09:29:33;-2.50;85.30
18365;DHT22;9309;52.126;11.616;2023-02-08T09:32:01;-2.00;84.40
18365;DHT22;9309;52.126;11.616;2023-02-08T09:34:29;-2.00;82.40
18365;DHT22;9309;52.126;11.616;2023-02-08T09:36:55;-2.00;81.60
18365;DHT22;9309;52.126;11.616;2023-02-08T09:39:23;-2.40;84.10
18365;DHT22;9309;52.126;11.616;2023-02-08T09:42:14;-2.90;84.70
18365;DHT22;9309;52.126;11.616;2023-02-08T09:48:13;-2.40;85.20
18365;DHT22;9309;52.126;11.616;2023-02-08T09:50:44;-2.30;84.90
18365;DHT22;9309;52.126;11.616;2023-02-08T09:53:15;-2.00;83.10
18365;DHT22;9309;52.126;11.616;2023-02-08T09:55:45;-1.80;82.60
18365;DHT22;9309;52.126;11.616;2023-02-08T09:58:18;-1.30;80.60
18365;DHT22;9309;52.126;11.616;2023-02-08T10:00:46;-1.50;80.50
18365;DHT22;9309;52.126;11.616;2023-02-08T10:03:26;-1.80;82.50
18365;DHT22;9309;52.126;11.616;2023-02-08T10:05:54;-1.50;80.40
18365;DHT22;9309;52.126;11.616;2023-02-08T10:08:22;-1.80;82.00
18365;DHT22;9309;52.126;11.616;2023-02-08T10:10:52;-1.70;81.10
18365;DHT22;9309;52.126;11.616;2023-02-08T10:13:38;-1.20;80.70
18365;DHT22;9309;52.126;11.616;2023-02-08T10:16:17;-0.90;78.20
18365;DHT22;9309;52.126;11.616;2023-02-08T10:18:51;-0.90;77.20
18365;DHT22;9309;52.126;11.616;2023-02-08T10:21:37;-0.90;77.10
18365;DHT22;9309;52.126;11.616;2023-02-08T10:24:27;-1.80;80.00
18365;DHT22;9309;52.126;11.616;2023-02-08T10:27:03;-2.10;83.50
18365;DHT22;9309;52.126;11.616;2023-02-08T10:32:49;0.60;73.70
18365;DHT22;9309;52.126;11.616;2023-02-08T10:35:24;0.10;73.30
18365;DHT22;9309;52.126;11.616;2023-02-08T10:37:53;-0.30;75.00
18365;DHT22;9309;52.126;11.616;2023-02-08T10:40:29;0.30;73.00
18365;DHT22;9309;52.126;11.616;2023-02-08T10:43:17;-0.10;73.90
18365;DHT22;9309;52.126;11.616;2023-02-08T10:45:51;-1.00;78.40
18365;DHT22;9309;52.126;11.616;2023-02-08T10:48:29;-1.10;79.30
18365;DHT22;9309;52.126;11.616;2023-02-08T10:50:58;-0.40;78.50
18365;DHT22;9309;52.126;11.616;2023-02-08T10:53:25;0.10;75.60
18365;DHT22;9309;52.126;11.616;2023-02-08T10:55:52;0.70;72.40
18365;DHT22;9309;52.126;11.616;2023-02-08T10:58:21;1.80;68.80
18365;DHT22;9309;52.126;11.616;2023-02-08T11:00:50;1.70;68.60
18365;DHT22;9309;52.126;11.616;2023-02-08T11:03:20;1.40;70.00
18365;DHT22;9309;52.126;11.616;2023-02-08T11:05:48;0.60;70.90
18365;DHT22;9309;52.126;11.616;2023-02-08T11:08:17;0.30;71.70
18365;DHT22;9309;52.126;11.616;2023-02-08T11:10:55;-0.10;75.90
18365;DHT22;9309;52.126;11.616;2023-02-08T11:13:24;1.00;73.80
18365;DHT22;9309;52.126;11.616;2023-02-08T11:15:54;1.40;70.00
18365;DHT22;9309;52.126;11.616;2023-02-08T11:18:23;1.30;70.20
18365;DHT22;9309;52.126;11.616;2023-02-08T11:20:52;0.70;72.20
18365;DHT22;9309;52.126;11.616;2023-02-08T11:23:24;0.20;74.60
18365;DHT22;9309;52.126;11.616;2023-02-08T11:25:53;0.30;73.70
18365;DHT22;9309;52.126;11.616;2023-02-08T11:28:29;0.20;74.20
18365;DHT22;9309;52.126;11.616;2023-02-08T11:30:58;-0.30;75.80
18365;DHT22;9309;52.126;11.616;2023-02-08T11:33:26;-0.70;78.50
18365;DHT22;9309;52.126;11.616;2023-02-08T11:35:57;-1.00;79.00
18365;DHT22;9309;52.126;11.616;2023-02-08T11:38:26;-0.60;79.70
18365;DHT22;9309;52.126;11.616;2023-02-08T11:40:55;-0.50;78.30
18365;DHT22;9309;52.126;11.616;2023-02-08T11:43:24;-0.60;78.80
18365;DHT22;9309;52.126;11.616;2023-02-08T11:45:53;-0.60;78.90
18365;DHT22;9309;52.126;11.616;2023-02-08T11:48:23;-1.00;79.60
18365;DHT22;9309;52.126;11.616;2023-02-08T11:50:56;-0.90;79.50
18365;DHT22;9309;52.126;11.616;2023-02-08T11:53:27;-1.30;79.70
18365;DHT22;9309;52.126;11.616;2023-02-08T11:56:04;-1.50;81.00
18365;DHT22;9309;52.126;11.616;2023-02-08T11:58:31;-1.60;81.00
18365;DHT22;9309;52.126;11.616;2023-02-08T12:01:00;-1.40;81.90
18365;DHT22;9309;52.126;11.616;2023-02-08T12:03:30;-1.00;79.50
18365;DHT22;9309;52.126;11.616;2023-02-08T12:06:12;-0.90;79.10
18365;DHT22;9309;52.126;11.616;2023-02-08T12:08:47;-1.10;77.70
18365;DHT22;9309;52.126;11.616;2023-02-08T12:11:24;-0.90;78.80
18365;DHT22;9309;52.126;11.616;2023-02-08T12:14:19;-0.30;77.10
18365;DHT22;9309;52.126;11.616;2023-02-08T12:17:14;-0.30;75.90
18365;DHT22;9309;52.126;11.616;2023-02-08T12:20:12;-0.60;76.00
18365;DHT22;9309;52.126;11.616;2023-02-08T12:22:49;-0.70;76.60
18365;DHT22;9309;52.126;11.616;2023-02-08T12:25:25;-0.50;75.70
18365;DHT22;9309;52.126;11.616;2023-02-08T12:27:58;-0.50;74.70
18365;DHT22;9309;52.126;11.616;2023-02-08T12:30:31;-0.40;74.20
18365;DHT22;9309;52.126;11.616;2023-02-08T12:33:25;-0.40;74.90
18365;DHT22;9309;52.126;11.616;2023-02-08T12:36:03;-0.70;75.30
18365;DHT22;9309;52.126;11.616;2023-02-08T12:38:44;-1.00;76.20
18365;DHT22;9309;52.126;11.616;2023-02-08T12:41:37;-0.80;75.80
18365;DHT22;9309;52.126;11.616;2023-02-08T12:44:09;-1.00;76.90
18365;DHT22;9309;52.126;11.616;2023-02-08T12:46:49;-0.50;76.20
18365;DHT22;9309;52.126;11.616;2023-02-08T12:49:31;-0.70;76.10
18365;DHT22;9309;52.126;11.616;2023-02-08T12:52:08;-0.70;77.10
18365;DHT22;9309;52.126;11.616;2023-02-08T12:54:41;-0.70;76.40
18365;DHT22;9309;52.126;11.616;2023-02-08T12:57:14;-0.50;76.20
18365;DHT22;9309;52.126;11.616;2023-02-08T12:59:44;-0.70;77.10
18365;DHT22;9309;52.126;11.616;2023-02-08T13:02:16;-0.40;75.80
18365;DHT22;9309;52.126;11.616;2023-02-08T13:04:45;-0.30;76.00
18365;DHT22;9309;52.126;11.616;2023-02-08T13:07:18;-0.40;75.80
18365;DHT22;9309;52.126;11.616;2023-02-08T13:09:51;-0.60;77.80
18365;DHT22;9309;52.126;11.616;2023-02-08T13:12:24;-0.80;78.10
18365;DHT22;9309;52.126;11.616;2023-02-08T13:14:53;-1.00;78.60
18365;DHT22;9309;52.126;11.616;2023-02-08T13:17:23;-1.10;80.20
18365;DHT22;9309;52.126;11.616;2023-02-08T13:19:55;-1.10;80.40
18365;DHT22;9309;52.126;11.616;2023-02-08T13:22:24;-0.70;79.40
18365;DHT22;9309;52.126;11.616;2023-02-08T13:24:51;-0.70;78.90
18365;DHT22;9309;52.126;11.616;2023-02-08T13:27:21;-0.70;79.20
18365;DHT22;9309;52.126;11.616;2023-02-08T13:29:50;-0.70;79.60
18365;DHT22;9309;52.126;11.616;2023-02-08T13:32:21;-0.60;79.90
18365;DHT22;9309;52.126;11.616;2023-02-08T13:34:57;-0.70;79.70
18365;DHT22;9309;52.126;11.616;2023-02-08T13:37:26;-0.70;80.40
18365;DHT22;9309;52.126;11.616;2023-02-08T13:39:59;-0.60;80.60
18365;DHT22;9309;52.126;11.616;2023-02-08T13:42:31;-0.30;78.90
18365;DHT22;9309;52.126;11.616;2023-02-08T13:45:00;-0.30;79.80
18365;DHT22;9309;52.126;11.616;2023-02-08T13:47:29;-0.20;79.10
18365;DHT22;9309;52.126;11.616;2023-02-08T13:49:58;-0.10;79.30
18365;DHT22;9309;52.126;11.616;2023-02-08T13:52:45;-0.20;79.40
18365;DHT22;9309;52.126;11.616;2023-02-08T13:55:41;0.00;78.80
18365;DHT22;9309;52.126;11.616;2023-02-08T14:01:30;0.10;77.60
18365;DHT22;9309;52.126;11.616;2023-02-08T14:04:34;0.20;77.40
18365;DHT22;9309;52.126;11.616;2023-02-08T14:07:10;0.60;76.60
18365;DHT22;9309;52.126;11.616;2023-02-08T14:09:45;0.70;75.70
18365;DHT22;9309;52.126;11.616;2023-02-08T14:12:19;1.10;75.40
18365;DHT22;9309;52.126;11.616;2023-02-08T14:17:52;1.50;73.80
18365;DHT22;9309;52.126;11.616;2023-02-08T14:20:24;1.40;73.40
18365;DHT22;9309;52.126;11.616;2023-02-08T14:22:54;1.30;73.10
18365;DHT22;9309;52.126;11.616;2023-02-08T14:25:24;1.80;71.90
18365;DHT22;9309;52.126;11.616;2023-02-08T14:27:53;4.10;64.90
18365;DHT22;9309;52.126;11.616;2023-02-08T14:30:25;5.30;58.80
18365;DHT22;9309;52.126;11.616;2023-02-08T14:33:11;4.80;58.90
18365;DHT22;9309;52.126;11.616;2023-02-08T14:35:50;4.50;60.10
18365;DHT22;9309;52.126;11.616;2023-02-08T14:38:35;4.00;61.70
18365;DHT22;9309;52.126;11.616;2023-02-08T14:44:56;2.60;66.30
18365;DHT22;9309;52.126;11.616;2023-02-08T14:50:34;1.50;70.70
18365;DHT22;9309;52.126;11.616;2023-02-08T14:53:24;0.90;73.20
18365;DHT22;9309;52.126;11.616;2023-02-08T14:55:57;0.40;75.80
18365;DHT22;9309;52.126;11.616;2023-02-08T14:58:28;0.30;76.90
18365;DHT22;9309;52.126;11.616;2023-02-08T15:01:00;0.20;77.50
18365;DHT22;9309;52.126;11.616;2023-02-08T15:03:29;0.00;78.60
18365;DHT22;9309;52.126;11.616;2023-02-08T15:06:21;-0.20;79.50
18365;DHT22;9309;52.126;11.616;2023-02-08T15:08:50;-0.30;80.40
18365;DHT22;9309;52.126;11.616;2023-02-08T15:11:22;-0.30;80.70
18365;DHT22;9309;52.126;11.616;2023-02-08T15:13:50;-0.30;81.20
18365;DHT22;9309;52.126;11.616;2023-02-08T15:16:18;-0.30;81.40
18365;DHT22;9309;52.126;11.616;2023-02-08T15:18:46;-0.40;81.40
18365;DHT22;9309;52.126;11.616;2023-02-08T15:21:17;-0.40;81.40
18365;DHT22;9309;52.126;11.616;2023-02-08T15:23:58;-0.40;81.40
18365;DHT22;9309;52.126;11.616;2023-02-08T15:26:25;-0.50;81.70
18365;DHT22;9309;52.126;11.616;2023-02-08T15:28:52;-0.50;81.80
18365;DHT22;9309;52.126;11.616;2023-02-08T15:31:21;-0.50;81.60
18365;DHT22;9309;52.126;11.616;2023-02-08T15:33:50;-0.60;81.80
18365;DHT22;9309;52.126;11.616;2023-02-08T15:36:23;-0.50;81.80
18365;DHT22;9309;52.126;11.616;2023-02-08T15:38:51;-0.50;81.50
18365;DHT22;9309;52.126;11.616;2023-02-08T15:41:24;-0.50;81.30
18365;DHT22;9309;52.126;11.616;2023-02-08T15:43:59;-0.40;80.40
18365;DHT22;9309;52.126;11.616;2023-02-08T15:46:27;-0.60;80.80
18365;DHT22;9309;52.126;11.616;2023-02-08T15:48:54;-0.70;81.40
18365;DHT22;9309;52.126;11.616;2023-02-08T15:51:23;-0.60;81.10
18365;DHT22;9309;52.126;11.616;2023-02-08T15:53:53;-0.70;81.60
18365;DHT22;9309;52.126;11.616;2023-02-08T15:56:24;-0.80;81.90
18365;DHT22;9309;52.126;11.616;2023-02-08T15:58:54;-0.90;82.30
18365;DHT22;9309;52.126;11.616;2023-02-08T16:01:22;-0.90;82.30
18365;DHT22;9309;52.126;11.616;2023-02-08T16:03:52;-0.80;82.00
18365;DHT22;9309;52.126;11.616;2023-02-08T16:06:24;-1.00;82.30
18365;DHT22;9309;52.126;11.616;2023-02-08T16:08:53;-1.00;82.50
18365;DHT22;9309;52.126;11.616;2023-02-08T16:11:23;-1.10;82.80
18365;DHT22;9309;52.126;11.616;2023-02-08T16:13:53;-1.20;82.90
18365;DHT22;9309;52.126;11.616;2023-02-08T16:16:23;-1.20;83.10